Terminal Aerodrome Forecast
Issued by NWS Memphis, TN

Home | Current Version | Previous Version | Text Only | Print | Product List | Glossary On
Versions: 1 2 3 4 5 6 7 8 9 10 11 12 13 14 15 16 17 18
363
FTUS44 KMEG 231134
TAFMKL
TAF
KMKL 231134Z 2312/2412 17011G19KT P6SM VCSH BKN010 OVC020
      WS020/22055KT
     FM231500 22013G20KT 4SM SHRA OVC009 WS020/22055KT
     FM231900 24014KT P6SM -SHRA OVC009
     FM232200 26013KT P6SM -SHRA OVC020
     FM240100 30009KT P6SM -SHRA BKN025 OVC050
     FM240600 36003KT P6SM OVC100=

USA.gov is the U.S. government's official web portal to all federal, state and local government web resources and services.